createdAt,value
2019-03-28T00:01:45.917Z,0.70
2019-03-28T00:04:17.174Z,0.70
2019-03-28T00:06:48.224Z,0.80
2019-03-28T00:09:19.475Z,0.70
2019-03-28T00:11:50.617Z,0.80
2019-03-28T00:14:21.362Z,0.70
2019-03-28T00:16:52.142Z,0.80
2019-03-28T00:19:22.853Z,0.70
2019-03-28T00:21:53.680Z,0.80
2019-03-28T00:24:31.310Z,0.70
2019-03-28T00:27:02.380Z,0.80
2019-03-28T00:29:33.143Z,0.70
2019-03-28T00:32:04.003Z,0.73
2019-03-28T00:34:35.176Z,0.80
2019-03-28T00:37:07.678Z,0.80
2019-03-28T00:39:38.713Z,0.80
2019-03-28T00:42:10.231Z,0.80
2019-03-28T00:44:41.270Z,0.70
2019-03-28T00:47:13.723Z,0.80
2019-03-28T00:49:44.469Z,0.80
2019-03-28T00:52:15.242Z,0.70
2019-03-28T00:54:46.203Z,0.80
2019-03-28T00:57:17.147Z,0.80
2019-03-28T00:59:48.045Z,0.80
2019-03-28T01:02:18.911Z,0.80
2019-03-28T01:04:49.763Z,0.80
2019-03-28T01:07:20.561Z,0.80
2019-03-28T01:09:51.415Z,0.80
2019-03-28T01:12:22.218Z,0.80
2019-03-28T01:14:53.083Z,0.80
2019-03-28T01:17:23.852Z,0.80
2019-03-28T01:19:54.687Z,0.80
2019-03-28T01:22:25.363Z,0.70
2019-03-28T01:24:57.773Z,0.80
2019-03-28T01:27:28.853Z,0.80
2019-03-28T01:29:59.673Z,0.80
2019-03-28T01:32:30.521Z,0.70
2019-03-28T01:35:01.303Z,0.73
2019-03-28T01:37:32.192Z,0.80
2019-03-28T01:40:03.005Z,0.77
2019-03-28T01:42:33.797Z,0.80
2019-03-28T01:45:04.829Z,0.80
2019-03-28T01:47:35.570Z,0.70
2019-03-28T01:50:06.559Z,0.80
2019-03-28T01:52:37.271Z,0.80
2019-03-28T01:55:08.105Z,0.80
2019-03-28T01:57:39.400Z,0.80
2019-03-28T02:00:12.441Z,0.80
2019-03-28T02:02:43.490Z,0.70
2019-03-28T02:05:14.220Z,0.80
2019-03-28T02:07:45.073Z,0.80
2019-03-28T02:10:16.913Z,0.80
2019-03-28T02:12:47.703Z,0.80
2019-03-28T02:15:18.562Z,0.80
2019-03-28T02:17:49.319Z,0.70
2019-03-28T02:20:20.099Z,0.70
2019-03-28T02:22:50.827Z,0.70
2019-03-28T02:25:21.721Z,0.80
2019-03-28T02:27:52.507Z,0.80
2019-03-28T02:30:32.102Z,0.80
2019-03-28T02:33:03.437Z,0.80
2019-03-28T02:35:34.219Z,0.80
2019-03-28T02:38:04.892Z,0.80
2019-03-28T02:40:35.621Z,0.80
2019-03-28T02:43:06.410Z,0.80
2019-03-28T02:45:37.139Z,0.70
2019-03-28T02:48:08.015Z,0.77
2019-03-28T02:50:38.695Z,0.80
2019-03-28T02:53:09.536Z,0.70
2019-03-28T02:55:40.193Z,0.80
2019-03-28T02:58:11.197Z,0.80
2019-03-28T03:00:42.088Z,0.80
2019-03-28T03:03:12.837Z,0.80
2019-03-28T03:05:43.687Z,0.80
2019-03-28T03:08:14.425Z,0.80
2019-03-28T03:10:45.131Z,0.70
2019-03-28T03:13:15.847Z,0.80
2019-03-28T03:15:46.702Z,0.80
2019-03-28T03:18:21.274Z,0.70
2019-03-28T03:20:50.095Z,0.80
2019-03-28T03:23:20.866Z,0.80
2019-03-28T03:25:51.695Z,0.80
2019-03-28T03:28:22.394Z,0.80
2019-03-28T03:30:53.242Z,0.80
2019-03-28T03:33:24.073Z,0.70
2019-03-28T03:35:54.804Z,0.80
2019-03-28T03:38:25.627Z,0.80
2019-03-28T03:40:56.303Z,0.80
2019-03-28T03:43:27.140Z,0.80
2019-03-28T03:45:57.818Z,0.73
2019-03-28T03:48:28.500Z,0.80
2019-03-28T03:50:59.296Z,0.80
2019-03-28T03:53:30.047Z,0.80
2019-03-28T03:56:00.780Z,0.80
2019-03-28T03:58:31.626Z,0.80
2019-03-28T04:01:02.488Z,0.80
2019-03-28T04:03:33.211Z,0.80
2019-03-28T04:06:04.038Z,0.80
2019-03-28T04:08:34.759Z,0.80
2019-03-28T04:11:05.823Z,0.80
2019-03-28T04:13:36.696Z,0.80
2019-03-28T04:16:07.608Z,0.80
2019-03-28T04:18:39.734Z,0.77
2019-03-28T04:21:10.726Z,0.70
2019-03-28T04:23:41.434Z,0.80
2019-03-28T04:26:12.258Z,0.70
2019-03-28T04:28:43.018Z,0.77
2019-03-28T04:31:13.847Z,0.77
2019-03-28T04:33:44.526Z,0.73
2019-03-28T04:36:15.482Z,0.80
2019-03-28T04:38:46.315Z,0.80
2019-03-28T04:41:17.068Z,0.80
2019-03-28T04:43:47.883Z,0.80
2019-03-28T04:46:18.808Z,0.80
2019-03-28T04:48:50.715Z,0.80
2019-03-28T04:51:21.733Z,0.80
2019-03-28T04:53:52.502Z,0.80
2019-03-28T04:56:23.248Z,0.80
2019-03-28T04:58:53.901Z,0.80
2019-03-28T05:01:25.468Z,0.80
2019-03-28T05:03:56.427Z,0.80
2019-03-28T05:06:27.214Z,0.70
2019-03-28T05:08:57.814Z,0.80
2019-03-28T05:11:28.556Z,0.80
2019-03-28T05:13:59.261Z,0.80
2019-03-28T05:16:30.007Z,0.80
2019-03-28T05:19:00.681Z,0.80
2019-03-28T05:21:31.462Z,0.70
2019-03-28T05:24:02.246Z,0.80
2019-03-28T05:26:33.109Z,0.80
2019-03-28T05:29:03.795Z,0.80
2019-03-28T05:31:34.630Z,0.70
2019-03-28T05:34:05.455Z,0.80
2019-03-28T05:36:36.191Z,0.80
2019-03-28T05:39:07.830Z,0.80
2019-03-28T05:41:38.527Z,0.80
2019-03-28T05:44:09.345Z,0.80
2019-03-28T05:46:40.265Z,0.80
2019-03-28T05:49:11.085Z,0.80
2019-03-28T05:51:41.803Z,0.80
2019-03-28T05:54:12.681Z,0.80
2019-03-28T05:56:43.526Z,0.80
2019-03-28T05:59:14.393Z,0.80
2019-03-28T06:01:45.153Z,0.80
2019-03-28T06:04:15.955Z,0.80
2019-03-28T06:06:46.771Z,0.70
2019-03-28T06:09:17.608Z,0.80
2019-03-28T06:11:48.461Z,0.80
2019-03-28T06:14:22.136Z,0.80
2019-03-28T06:16:52.989Z,0.80
2019-03-28T06:19:23.725Z,0.80
2019-03-28T06:21:54.446Z,0.80
2019-03-28T06:24:25.253Z,0.80
2019-03-28T06:26:56.137Z,0.80
2019-03-28T06:29:26.905Z,0.80
2019-03-28T06:31:57.781Z,0.70
2019-03-28T06:34:28.475Z,0.80
2019-03-28T06:36:59.401Z,0.80
2019-03-28T06:39:30.085Z,0.80
2019-03-28T06:42:00.977Z,0.80
2019-03-28T06:44:31.759Z,0.80
2019-03-28T06:47:02.707Z,0.80
2019-03-28T06:49:33.415Z,0.80
2019-03-28T06:52:04.223Z,0.70
2019-03-28T06:54:35.049Z,0.77
2019-03-28T06:57:05.865Z,0.77
2019-03-28T06:59:37.923Z,0.70
2019-03-28T07:02:08.992Z,0.80
2019-03-28T07:04:39.781Z,0.80
2019-03-28T07:07:10.455Z,0.80
2019-03-28T07:09:41.170Z,0.80
2019-03-28T07:12:11.898Z,0.80
2019-03-28T07:14:42.746Z,0.80
2019-03-28T07:17:13.442Z,0.80
2019-03-28T07:19:44.199Z,0.80
2019-03-28T07:22:15.004Z,0.80
2019-03-28T07:24:45.766Z,0.80
2019-03-28T07:27:17.296Z,0.80
2019-03-28T07:29:51.114Z,0.70
2019-03-28T07:32:20.880Z,0.80
2019-03-28T07:34:51.597Z,0.70
2019-03-28T07:37:23.252Z,0.70
2019-03-28T07:39:54.131Z,0.70
2019-03-28T07:42:25.018Z,0.70
2019-03-28T07:44:55.935Z,0.77
2019-03-28T07:47:26.673Z,0.70
2019-03-28T07:49:57.481Z,0.80
2019-03-28T07:52:28.275Z,0.80
2019-03-28T07:54:58.987Z,0.70
2019-03-28T07:57:29.775Z,0.70
2019-03-28T08:00:04.509Z,0.70
2019-03-28T08:02:32.967Z,0.70
2019-03-28T08:05:03.688Z,0.70
2019-03-28T08:07:44.256Z,0.70
2019-03-28T08:10:07.862Z,0.70
2019-03-28T08:12:38.776Z,0.70
2019-03-28T08:15:09.936Z,0.60
2019-03-28T08:17:40.598Z,0.77
2019-03-28T08:20:12.234Z,0.70
2019-03-28T08:22:42.950Z,0.70
2019-03-28T08:25:14.791Z,0.70
2019-03-28T08:27:45.692Z,0.70
2019-03-28T08:30:19.311Z,0.70
2019-03-28T08:32:49.208Z,0.70
2019-03-28T08:35:20.107Z,0.70
2019-03-28T08:37:51.034Z,0.70
2019-03-28T08:40:46.572Z,0.70
2019-03-28T08:43:17.466Z,0.70
2019-03-28T08:45:48.592Z,0.70
2019-03-28T08:48:19.453Z,0.70
2019-03-28T08:50:50.289Z,0.70
2019-03-28T08:53:20.972Z,0.70
2019-03-28T08:55:51.639Z,0.70
2019-03-28T08:58:22.430Z,0.70
2019-03-28T09:00:53.262Z,0.70
2019-03-28T09:03:24.225Z,0.70
2019-03-28T09:05:55.031Z,0.70
2019-03-28T09:08:26.177Z,0.60
2019-03-28T09:10:57.004Z,0.70
2019-03-28T09:13:27.824Z,0.60
2019-03-28T09:15:58.586Z,0.70
2019-03-28T09:18:29.461Z,0.70
2019-03-28T09:21:00.202Z,0.70
2019-03-28T09:23:31.050Z,0.70
2019-03-28T09:26:04.383Z,0.70
2019-03-28T09:28:34.211Z,0.70
2019-03-28T09:31:18.899Z,0.70
2019-03-28T09:33:40.530Z,0.70
2019-03-28T09:36:10.221Z,0.70
2019-03-28T09:38:41.139Z,0.70
2019-03-28T09:41:12.053Z,0.67
2019-03-28T09:43:54.435Z,0.70
2019-03-28T09:46:15.359Z,0.60
2019-03-28T09:48:46.189Z,0.70
2019-03-28T09:51:17.095Z,0.60
2019-03-28T09:53:47.960Z,0.70
2019-03-28T09:56:18.752Z,0.70
2019-03-28T09:58:49.471Z,0.60
2019-03-28T10:01:20.161Z,0.70
2019-03-28T10:03:51.025Z,0.70
2019-03-28T10:06:21.785Z,0.70
2019-03-28T10:08:52.625Z,0.70
2019-03-28T10:11:23.471Z,0.70
2019-03-28T10:13:54.259Z,0.70
2019-03-28T10:16:25.013Z,0.60
2019-03-28T10:18:55.779Z,0.60
2019-03-28T10:21:26.557Z,0.60
2019-03-28T10:23:57.449Z,0.70
2019-03-28T10:26:28.267Z,0.60
2019-03-28T10:28:59.073Z,0.70
2019-03-28T10:31:30.131Z,0.70
2019-03-28T10:34:00.906Z,0.70
2019-03-28T10:36:31.752Z,0.60
2019-03-28T10:39:02.640Z,0.60
2019-03-28T10:41:33.410Z,0.60
2019-03-28T10:44:04.273Z,0.60
2019-03-28T10:46:35.087Z,0.60
2019-03-28T10:49:06.177Z,0.60
2019-03-28T10:51:37.014Z,0.60
2019-03-28T10:54:19.389Z,0.60
2019-03-28T10:56:51.155Z,0.60
2019-03-28T10:59:22.692Z,0.60
2019-03-28T11:01:50.727Z,0.60
2019-03-28T11:04:18.597Z,0.60
2019-03-28T11:06:49.288Z,0.60
2019-03-28T11:09:20.201Z,0.60
2019-03-28T11:11:50.961Z,0.60
2019-03-28T11:14:21.695Z,0.60
2019-03-28T11:16:52.521Z,0.60
2019-03-28T11:19:23.383Z,0.60
2019-03-28T11:21:54.105Z,0.60
2019-03-28T11:24:24.931Z,0.63
2019-03-28T11:26:55.808Z,0.60
2019-03-28T11:29:26.665Z,0.60
2019-03-28T11:31:57.627Z,0.60
2019-03-28T11:34:28.453Z,0.60
2019-03-28T11:36:59.335Z,0.60
2019-03-28T11:39:30.115Z,0.70
2019-03-28T11:42:01.987Z,0.60
2019-03-28T11:44:32.961Z,0.50
2019-03-28T11:47:03.758Z,0.60
2019-03-28T11:49:34.489Z,0.60
2019-03-28T11:52:05.317Z,0.60
2019-03-28T11:54:36.146Z,0.60
2019-03-28T11:57:07.032Z,0.60
2019-03-28T11:59:37.731Z,0.70
2019-03-28T12:02:19.847Z,0.60
2019-03-28T12:04:41.061Z,0.60
2019-03-28T12:07:11.893Z,0.60
2019-03-28T12:09:42.678Z,0.60
2019-03-28T12:12:13.416Z,0.60
2019-03-28T12:14:44.323Z,0.60
2019-03-28T12:17:15.076Z,0.60
2019-03-28T12:19:45.943Z,0.60
2019-03-28T12:22:16.749Z,0.60
2019-03-28T12:24:47.648Z,0.60
2019-03-28T12:27:18.461Z,0.60
2019-03-28T12:29:49.906Z,0.60
2019-03-28T12:32:20.854Z,0.60
2019-03-28T12:34:51.849Z,0.60
2019-03-28T12:37:22.709Z,0.60
2019-03-28T12:39:53.566Z,0.60
2019-03-28T12:42:24.422Z,0.60
2019-03-28T12:44:57.182Z,0.60
2019-03-28T12:47:41.334Z,0.60
2019-03-28T12:50:00.370Z,0.60
2019-03-28T12:52:31.154Z,0.60
2019-03-28T12:55:01.828Z,0.60
2019-03-28T12:57:32.648Z,0.60
2019-03-28T13:00:03.494Z,0.60
2019-03-28T13:02:34.284Z,0.60
2019-03-28T13:05:06.029Z,0.60
2019-03-28T13:07:36.859Z,0.70
2019-03-28T13:10:08.754Z,0.60
2019-03-28T13:12:39.494Z,0.60
2019-03-28T13:15:10.397Z,0.60
2019-03-28T13:17:41.182Z,0.60
2019-03-28T13:20:12.014Z,0.60
2019-03-28T13:22:42.754Z,0.70
2019-03-28T13:25:13.571Z,0.60
2019-03-28T13:27:44.428Z,0.60
2019-03-28T13:30:15.810Z,0.60
2019-03-28T13:32:46.642Z,0.60
2019-03-28T13:35:17.468Z,0.60
2019-03-28T13:37:48.210Z,0.60
2019-03-28T13:40:19.032Z,0.60
2019-03-28T13:42:52.793Z,0.60
2019-03-28T13:45:22.231Z,0.60
2019-03-28T13:47:54.444Z,0.60
2019-03-28T13:50:25.407Z,0.60
2019-03-28T13:52:56.299Z,0.60
2019-03-28T13:55:27.008Z,0.70
2019-03-28T13:57:57.843Z,0.70
2019-03-28T14:00:32.834Z,0.60
2019-03-28T14:03:03.765Z,0.70
2019-03-28T14:05:34.549Z,0.60
2019-03-28T14:08:05.506Z,0.60
2019-03-28T14:10:36.272Z,0.60
2019-03-28T14:13:07.134Z,0.60
2019-03-28T14:15:37.871Z,0.60
2019-03-28T14:18:08.636Z,0.60
2019-03-28T14:20:39.331Z,0.70
2019-03-28T14:23:10.262Z,0.70
2019-03-28T14:25:41.038Z,0.70
2019-03-28T14:28:11.874Z,0.60
2019-03-28T14:30:42.785Z,0.70
2019-03-28T14:33:15.900Z,0.60
2019-03-28T14:35:46.036Z,0.70
2019-03-28T14:38:16.878Z,0.70
2019-03-28T14:40:47.654Z,0.60
2019-03-28T14:43:18.360Z,0.70
2019-03-28T14:45:49.236Z,0.60
2019-03-28T14:48:20.103Z,0.60
2019-03-28T14:50:51.006Z,0.70
2019-03-28T14:53:22.431Z,0.70
2019-03-28T14:55:54.509Z,0.70
2019-03-28T14:58:26.581Z,0.70
2019-03-28T15:00:57.482Z,0.70
2019-03-28T15:03:28.362Z,0.67
2019-03-28T15:05:59.188Z,0.60
2019-03-28T15:08:30.097Z,0.60
2019-03-28T15:11:01.590Z,0.60
2019-03-28T15:13:32.603Z,0.60
2019-03-28T15:16:03.477Z,0.60
2019-03-28T15:18:34.229Z,0.60
2019-03-28T15:21:04.939Z,0.70
2019-03-28T15:23:35.825Z,0.70
2019-03-28T15:26:06.693Z,0.60
2019-03-28T15:28:37.457Z,0.70
2019-03-28T15:31:08.361Z,0.70
2019-03-28T15:33:40.112Z,0.70
2019-03-28T15:36:11.084Z,0.70
2019-03-28T15:38:41.956Z,0.60
2019-03-28T15:41:12.865Z,0.60
2019-03-28T15:43:43.589Z,0.60
2019-03-28T15:46:14.408Z,0.60
2019-03-28T15:48:45.239Z,0.70
2019-03-28T15:51:15.978Z,0.70
2019-03-28T15:53:46.833Z,0.60
2019-03-28T15:56:17.843Z,0.70
2019-03-28T15:58:48.677Z,0.60
2019-03-28T16:01:19.395Z,0.70
2019-03-28T16:03:53.064Z,0.60
2019-03-28T16:06:22.676Z,0.60
2019-03-28T16:08:53.670Z,0.63
2019-03-28T16:11:24.713Z,0.60
2019-03-28T16:13:55.540Z,0.70
2019-03-28T16:16:26.289Z,0.67
2019-03-28T16:18:57.023Z,0.67
2019-03-28T16:21:27.783Z,0.60
2019-03-28T16:23:58.651Z,0.70
2019-03-28T16:26:29.436Z,0.60
2019-03-28T16:29:00.226Z,0.60
2019-03-28T16:31:31.048Z,0.60
2019-03-28T16:34:07.263Z,0.60
2019-03-28T16:36:34.460Z,0.60
2019-03-28T16:39:07.418Z,0.60
2019-03-28T16:41:38.285Z,0.60
2019-03-28T16:44:09.066Z,0.60
2019-03-28T16:46:39.928Z,0.53
2019-03-28T16:49:10.728Z,0.70
2019-03-28T16:51:43.490Z,0.60
2019-03-28T16:54:14.060Z,0.60
2019-03-28T16:56:44.883Z,0.70
2019-03-28T16:59:15.663Z,0.70
2019-03-28T17:01:46.414Z,0.60
2019-03-28T17:04:21.008Z,0.60
2019-03-28T17:06:49.816Z,0.60
2019-03-28T17:09:21.154Z,0.70
2019-03-28T17:11:51.843Z,0.70
2019-03-28T17:14:22.695Z,0.60
2019-03-28T17:16:53.544Z,0.70
2019-03-28T17:19:24.260Z,0.60
2019-03-28T17:21:55.014Z,0.70
2019-03-28T17:24:25.901Z,0.60
2019-03-28T17:26:56.681Z,0.70
2019-03-28T17:29:27.528Z,0.60
2019-03-28T17:31:58.390Z,0.70
2019-03-28T17:34:35.176Z,0.70
2019-03-28T17:37:01.679Z,0.70
2019-03-28T17:39:32.568Z,0.70
2019-03-28T17:42:06.205Z,0.70
2019-03-28T17:44:36.323Z,0.60
2019-03-28T17:47:07.442Z,0.63
2019-03-28T17:49:38.328Z,0.60
2019-03-28T17:52:09.128Z,0.67
2019-03-28T17:54:39.843Z,0.70
2019-03-28T17:57:10.729Z,0.60
2019-03-28T17:59:41.439Z,0.67
2019-03-28T18:02:12.291Z,0.60
2019-03-28T18:04:48.259Z,0.60
2019-03-28T18:07:15.592Z,0.70
2019-03-28T18:09:46.400Z,0.70
2019-03-28T18:12:17.103Z,0.60
2019-03-28T18:14:48.007Z,0.70
2019-03-28T18:17:18.830Z,0.70
2019-03-28T18:19:49.591Z,0.70
2019-03-28T18:22:20.438Z,0.70
2019-03-28T18:24:51.281Z,0.70
2019-03-28T18:27:21.976Z,0.70
2019-03-28T18:29:53.692Z,0.60
2019-03-28T18:32:24.682Z,0.70
2019-03-28T18:35:05.121Z,0.70
2019-03-28T18:37:28.008Z,0.70
2019-03-28T18:39:58.842Z,0.70
2019-03-28T18:42:29.726Z,0.60
2019-03-28T18:45:00.586Z,0.63
2019-03-28T18:47:31.605Z,0.70
2019-03-28T18:50:03.809Z,0.70
2019-03-28T18:52:34.975Z,0.70
2019-03-28T18:55:06.258Z,0.70
2019-03-28T18:57:37.078Z,0.70
2019-03-28T19:00:07.952Z,0.70
2019-03-28T19:02:38.853Z,0.70
2019-03-28T19:05:19.813Z,0.70
2019-03-28T19:07:42.067Z,0.70
2019-03-28T19:10:13.365Z,0.70
2019-03-28T19:12:44.134Z,0.70
2019-03-28T19:15:15.096Z,0.60
2019-03-28T19:17:45.943Z,0.70
2019-03-28T19:20:16.835Z,0.70
2019-03-28T19:22:50.124Z,0.70
2019-03-28T19:25:20.384Z,0.67
2019-03-28T19:27:51.197Z,0.70
2019-03-28T19:30:31.271Z,0.70
2019-03-28T19:33:02.520Z,0.70
2019-03-28T19:35:34.905Z,0.70
2019-03-28T19:38:08.937Z,0.70
2019-03-28T19:40:38.535Z,0.70
2019-03-28T19:43:19.679Z,0.70
2019-03-28T19:45:41.898Z,0.70
2019-03-28T19:48:12.747Z,0.70
2019-03-28T19:50:43.642Z,0.70
2019-03-28T19:53:14.477Z,0.70
2019-03-28T19:55:45.186Z,0.60
2019-03-28T19:58:16.091Z,0.70
2019-03-28T20:00:46.838Z,0.70
2019-03-28T20:03:17.605Z,0.70
2019-03-28T20:05:50.049Z,0.70
2019-03-28T20:08:20.961Z,0.70
2019-03-28T20:10:51.703Z,0.60
2019-03-28T20:13:22.444Z,0.70
2019-03-28T20:15:54.167Z,0.70
2019-03-28T20:18:24.988Z,0.60
2019-03-28T20:20:55.904Z,0.70
2019-03-28T20:23:26.887Z,0.70
2019-03-28T20:25:58.889Z,0.70
2019-03-28T20:28:30.059Z,0.70
2019-03-28T20:31:01.106Z,0.70
2019-03-28T20:33:31.963Z,0.70
2019-03-28T20:36:30.076Z,0.70
2019-03-28T20:38:35.249Z,0.70
2019-03-28T20:41:06.145Z,0.60
2019-03-28T20:43:36.934Z,0.70
2019-03-28T20:46:07.663Z,0.70
2019-03-28T20:48:38.947Z,0.63
2019-03-28T20:51:09.917Z,0.70
2019-03-28T20:53:40.807Z,0.70
2019-03-28T20:56:11.602Z,0.70
2019-03-28T20:58:42.488Z,0.70
2019-03-28T21:01:13.239Z,0.70
2019-03-28T21:03:43.985Z,0.70
2019-03-28T21:06:16.764Z,0.70
2019-03-28T21:08:47.322Z,0.70
2019-03-28T21:11:18.119Z,0.70
2019-03-28T21:13:48.917Z,0.70
2019-03-28T21:16:19.772Z,0.67
2019-03-28T21:18:50.644Z,0.60
2019-03-28T21:21:21.384Z,0.73
2019-03-28T21:23:52.142Z,0.70
2019-03-28T21:26:22.978Z,0.70
2019-03-28T21:28:53.836Z,0.70
2019-03-28T21:31:24.754Z,0.70
2019-03-28T21:33:55.641Z,0.70
2019-03-28T21:36:30.046Z,0.70
2019-03-28T21:38:59.107Z,0.70
2019-03-28T21:41:29.902Z,0.70
2019-03-28T21:44:00.630Z,0.70
2019-03-28T21:46:32.245Z,0.70
2019-03-28T21:49:03.813Z,0.70
2019-03-28T21:51:34.663Z,0.77
2019-03-28T21:54:05.584Z,0.70
2019-03-28T21:56:36.348Z,0.70
2019-03-28T21:59:07.088Z,0.70
2019-03-28T22:01:37.874Z,0.70
2019-03-28T22:04:09.068Z,0.70
2019-03-28T22:06:43.186Z,0.70
2019-03-28T22:09:12.650Z,0.70
2019-03-28T22:11:43.508Z,0.73
2019-03-28T22:14:14.354Z,0.70
2019-03-28T22:16:45.198Z,0.70
2019-03-28T22:19:16.068Z,0.70
2019-03-28T22:21:46.854Z,0.70
2019-03-28T22:24:17.598Z,0.70
2019-03-28T22:26:48.382Z,0.77
2019-03-28T22:29:20.009Z,0.70
2019-03-28T22:31:51.610Z,0.80
2019-03-28T22:34:22.334Z,0.80
2019-03-28T22:36:57.670Z,0.70
2019-03-28T22:39:25.802Z,0.80
2019-03-28T22:41:56.672Z,0.70
2019-03-28T22:44:27.412Z,0.80
2019-03-28T22:46:58.237Z,0.70
2019-03-28T22:49:28.970Z,0.70
2019-03-28T22:51:59.731Z,0.70
2019-03-28T22:54:30.538Z,0.70
2019-03-28T22:57:01.329Z,0.80
2019-03-28T22:59:32.234Z,0.70
2019-03-28T23:02:03.156Z,0.77
2019-03-28T23:04:34.106Z,0.80
2019-03-28T23:07:10.980Z,0.80
2019-03-28T23:09:37.351Z,0.73
2019-03-28T23:12:08.947Z,0.70
2019-03-28T23:14:40.232Z,0.80
2019-03-28T23:17:11.027Z,0.80
2019-03-28T23:19:41.884Z,0.80
2019-03-28T23:22:12.719Z,0.80
2019-03-28T23:24:44.168Z,0.80
2019-03-28T23:27:15.299Z,0.80
2019-03-28T23:29:46.031Z,0.80
2019-03-28T23:32:16.759Z,0.80
2019-03-28T23:34:48.149Z,0.80
2019-03-28T23:37:24.904Z,0.80
2019-03-28T23:39:52.139Z,0.80
2019-03-28T23:42:22.928Z,0.80
2019-03-28T23:44:53.871Z,0.80
2019-03-28T23:47:24.944Z,0.80
2019-03-28T23:49:55.651Z,0.73
2019-03-28T23:52:26.553Z,0.80
2019-03-28T23:54:57.250Z,0.70
2019-03-28T23:57:28.844Z,0.77
2019-03-28T23:59:59.921Z,0.70
